WetterOnline ( http://www.wetteronline.de )

Wetter aktuell Miltenberg

Aktuelles Wetter: Michelstadt-Vielbrunn (455m)

6-stündlich | Neueste Meldungen
Ortszeit Temperatur Wetter
Fr, 22.03. 1:00 8.8° C leicht bewölkt
Do, 21.03. 19:00 10.3° C wolkenlos
Do, 21.03. 13:00 11.2° C wolkenlos
Do, 21.03. 7:00 2.9° C wolkenlos
Do, 21.03. 1:00 3.4° C fast wolkenlos
Mi, 20.03. 19:00 7.2° C wolkenlos
Mi, 20.03. 13:00 8.4° C wolkenlos
Mi, 20.03. 7:00 2.1° C wolkenlos
Ortszeit Temperatur Wetter
Fr, 22.03. 2:30 7.1° C wolkenlos
Fr, 22.03. 2:20 7.1° C wolkenlos
Fr, 22.03. 2:10 8.0° C fast wolkenlos
Fr, 22.03. 2:00 7.8° C leicht bewölkt
Fr, 22.03. 1:50 7.8° C leicht bewölkt
Fr, 22.03. 1:40 7.7° C fast wolkenlos
Fr, 22.03. 1:30 8.4° C fast wolkenlos
Fr, 22.03. 1:00 8.8° C leicht bewölkt
Fr, 22.03. 0:30 9.2° C leicht bewölkt
Fr, 22.03. 0:00 9.6° C wolkenlos
Do, 21.03. 23:30 9.6° C leicht bewölkt
Ortszeit Relative Feuchte Sichtweite
Fr, 22.03. 1:00 54% 45 km
Do, 21.03. 19:00 48% 50 km
Do, 21.03. 13:00 48% 40 km
Do, 21.03. 7:00 63% 50 km
Do, 21.03. 1:00 65% 55 km
Mi, 20.03. 19:00 50% 50 km
Mi, 20.03. 13:00 46% 45 km
Mi, 20.03. 7:00 64% 50 km
Ortszeit Relative Feuchte Sichtweite
Fr, 22.03. 2:30 62% 45 km
Fr, 22.03. 2:20 62% -
Fr, 22.03. 2:10 58% -
Fr, 22.03. 2:00 59% 45 km
Fr, 22.03. 1:50 59% -
Fr, 22.03. 1:40 59% -
Fr, 22.03. 1:30 56% 45 km
Fr, 22.03. 1:00 54% 45 km
Fr, 22.03. 0:30 52% 45 km
Fr, 22.03. 0:00 51% 50 km
Do, 21.03. 23:30 51% 50 km
Ortszeit Niederschlagsmenge Niederschlagsart
Fr, 22.03. 1:00 0.0 l/m2 in 6 Std. -
Do, 21.03. 19:00 0.0 l/m2 in 12 Std. -
Do, 21.03. 13:00 0.0 l/m2 in 6 Std. -
Do, 21.03. 7:00 0.0 l/m2 in 12 Std. -
Do, 21.03. 1:00 0.0 l/m2 in 6 Std. -
Mi, 20.03. 19:00 0.0 l/m2 in 12 Std. -
Mi, 20.03. 13:00 0.0 l/m2 in 6 Std. -
Mi, 20.03. 7:00 0.0 l/m2 in 12 Std. -
Ortszeit Niederschlagsmenge Niederschlagsart
Fr, 22.03. 2:30 0.0 l/m2 in 1 Std. -
Fr, 22.03. 2:20 keine Meldung -
Fr, 22.03. 2:10 keine Meldung -
Fr, 22.03. 2:00 0.0 l/m2 in 1 Std. -
Fr, 22.03. 1:50 keine Meldung -
Fr, 22.03. 1:40 keine Meldung -
Fr, 22.03. 1:30 0.0 l/m2 in 1 Std. -
Fr, 22.03. 1:00 0.0 l/m2 in 1 Std. -
Fr, 22.03. 0:30 0.0 l/m2 in 1 Std. -
Fr, 22.03. 0:00 0.0 l/m2 in 1 Std. -
Do, 21.03. 23:30 0.0 l/m2 in 1 Std. -
Ortszeit Stärke Spitze Richtung
km/h Bft. km/h Grad Sektor
Fr, 22.03. 1:00 7 2 18 140° SO
Do, 21.03. 19:00 13 3 26 70° O
Do, 21.03. 13:00 14 3 25 60° NO
Do, 21.03. 7:00 7 2 11 110° O
Do, 21.03. 1:00 7 2 11 150° SO
Mi, 20.03. 19:00 4 1 14 60° NO
Mi, 20.03. 13:00 6 1 19 350° N
Mi, 20.03. 7:00 2 1 9 240° SW
Ortszeit Stärke Spitze Richtung
km/h Bft. km/h Grad Sektor
Fr, 22.03. 2:30 11 2 14 80° O
Fr, 22.03. 2:20 11 2 - 80° O
Fr, 22.03. 2:10 7 2 - 70° O
Fr, 22.03. 2:00 9 2 11 70° O
Fr, 22.03. 1:50 9 2 - 70° O
Fr, 22.03. 1:40 9 2 - 60° NO
Fr, 22.03. 1:30 7 2 11 70° O
Fr, 22.03. 1:00 7 2 11 140° SO
Fr, 22.03. 0:30 6 1 9 100° O
Fr, 22.03. 0:00 7 2 14 80° O
Do, 21.03. 23:30 9 2 13 70° O
Ortszeit Untergrenze Bedeckung Gattung
total tief tief mittel hoch
Fr, 22.03. 1:00 9000 m 4/8 0/8 - - -
Do, 21.03. 19:00 - 0/8 0/8 - - -
Do, 21.03. 13:00 - 0/8 0/8 - - -
Do, 21.03. 7:00 - 0/8 0/8 - - -
Do, 21.03. 1:00 7800 m 1/8 0/8 - - -
Mi, 20.03. 19:00 - 0/8 0/8 - - -
Mi, 20.03. 13:00 - 0/8 0/8 - - -
Mi, 20.03. 7:00 - 0/8 0/8 - - -
Ortszeit Bedeckungsgrad in Achtel und Wolkenuntergrenze
Fr, 22.03. 2:30 keine Wolken
Fr, 22.03. 2:20 keine Wolken
Fr, 22.03. 2:10 1(10500m)
Fr, 22.03. 2:00 3(10500m)
Fr, 22.03. 1:50 3(10500m)
Fr, 22.03. 1:40 1(10500m)
Fr, 22.03. 1:30 2(10500m)
Fr, 22.03. 1:00 3(9000m) 4(10500m)
Fr, 22.03. 0:30 3(9000m)
Fr, 22.03. 0:00 keine Wolken
Do, 21.03. 23:30 4(9000m)
Ortszeit Luftdruck NN (hPa) Tendenz (hPa in 3 Std.)
Fr, 22.03. 1:00 1032 - 0,6
Do, 21.03. 19:00 1032 - 0,2
Do, 21.03. 13:00 1034 - 0,7
Do, 21.03. 7:00 1036 + 0,3
Do, 21.03. 1:00 1036 - 0,3
Mi, 20.03. 19:00 1035 + 0,4
Mi, 20.03. 13:00 1035 + 0,2
Mi, 20.03. 7:00 1035 + 1,0
Ortszeit Luftdruck NN (hPa) Tendenz (hPa in 3 Std.)
Fr, 22.03. 2:30 1032 - 0,8
Fr, 22.03. 2:20 1032 keine Meldung
Fr, 22.03. 2:10 1032 keine Meldung
Fr, 22.03. 2:00 1032 - 0,7
Fr, 22.03. 1:50 1032 keine Meldung
Fr, 22.03. 1:40 1032 keine Meldung
Fr, 22.03. 1:30 1032 - 0,5
Fr, 22.03. 1:00 1032 - 0,6
Fr, 22.03. 0:30 1032 - 0,5
Fr, 22.03. 0:00 1032 - 0,2
Do, 21.03. 23:30 1032 - 0,3
Ortszeit Schneehöhe (cm)
Fr, 22.03. 1:00 0
Do, 21.03. 19:00 0
Do, 21.03. 13:00 0
Do, 21.03. 7:00 0
Do, 21.03. 1:00 0
Mi, 20.03. 19:00 0
Mi, 20.03. 13:00 0
Mi, 20.03. 7:00 0
Ortszeit Schneehöhe (cm)
Fr, 22.03. 2:30 0
Fr, 22.03. 2:20 0
Fr, 22.03. 2:10 0
Fr, 22.03. 2:00 0
Fr, 22.03. 1:50 0
Fr, 22.03. 1:40 0
Fr, 22.03. 1:30 0
Fr, 22.03. 1:00 0
Fr, 22.03. 0:30 0
Fr, 22.03. 0:00 0
Do, 21.03. 23:30 0
Link zu dieser Seite / Seite empfehlen

Das Wetter in ...